BKPR/PRN METAR and TAF weather

Enter ICAO airport designator
Station Type Date Time Source
BKPR METAR 2018/01/19 23:00 UTC NOAA

BKPR 192300Z 19005KT 9999 SCT040 BKN080 05/M04 Q1011 NOSIG RMK 17290095


Station Type Date Time Source
BKPR Decoded METAR 2018/01/19 23:00 UTC NOAA

Station name not available
Jan 19, 2018 - 06:00 PM EST / 2018.01.19 2300 UTC
Wind: from the S (190 degrees) at 6 MPH (5 KT):0
Visibility: greater than 7 mile(s):0
Sky conditions: mostly cloudy
Temperature: 41 F (5 C)
Dew Point: 24 F (-4 C)
Relative Humidity: 52%
Pressure (altimeter): 29.85 in. Hg (1011 hPa)
ob: BKPR 192300Z 19005KT 9999 SCT040 BKN080 05/M04 Q1011 NOSIG RMK 17290095
cycle: 23

Station Type Date Time Source
BKPR TAF 2018/01/19 18:30 UTC NOAA

TAF BKPR 191730Z 1918/2018 21005KT 9999 SCT040 BKN080
BECMG 2005/2008 34010KT
TEMPO 2009/2017 3000 SN BKN009


Example: see airport list